sensor_id;sensor_type;location;lat;lon;timestamp;pressure;altitude;pressure_sealevel;temperature;humidity
84116;BME280;74211;52.234;9.860;2024-02-15T00:00:22;101073.56;;;11.09;95.45
84116;BME280;74211;52.234;9.860;2024-02-15T00:02:54;101061.78;;;10.99;95.48
84116;BME280;74211;52.234;9.860;2024-02-15T00:05:25;101076.09;;;11.03;95.58
84116;BME280;74211;52.234;9.860;2024-02-15T00:07:55;101062.03;;;11.04;95.99
84116;BME280;74211;52.234;9.860;2024-02-15T00:10:25;101062.03;;;11.04;95.68
84116;BME280;74211;52.234;9.860;2024-02-15T00:12:58;101070.88;;;11.03;95.64
84116;BME280;74211;52.234;9.860;2024-02-15T00:15:29;101073.03;;;10.99;96.08
84116;BME280;74211;52.234;9.860;2024-02-15T00:17:59;101062.94;;;10.96;95.79
84116;BME280;74211;52.234;9.860;2024-02-15T00:20:30;101073.03;;;10.99;96.08
84116;BME280;74211;52.234;9.860;2024-02-15T00:23:01;101047.38;;;10.88;96.25
84116;BME280;74211;52.234;9.860;2024-02-15T00:25:31;101057.00;;;11.02;95.63
84116;BME280;74211;52.234;9.860;2024-02-15T00:28:05;101074.91;;;11.05;95.70
84116;BME280;74211;52.234;9.860;2024-02-15T00:30:35;101059.25;;;11.05;95.39
84116;BME280;74211;52.234;9.860;2024-02-15T00:33:04;101068.16;;;11.11;95.13
84116;BME280;74211;52.234;9.860;2024-02-15T00:35:35;101067.19;;;11.12;95.50
84116;BME280;74211;52.234;9.860;2024-02-15T00:38:06;101063.00;;;11.18;94.88
84116;BME280;74211;52.234;9.860;2024-02-15T00:40:36;101071.00;;;11.16;95.16
84116;BME280;74211;52.234;9.860;2024-02-15T00:43:09;101072.28;;;11.20;94.94
84116;BME280;74211;52.234;9.860;2024-02-15T00:45:39;101065.44;;;11.19;95.11
84116;BME280;74211;52.234;9.860;2024-02-15T00:48:10;101068.84;;;11.20;95.26
84116;BME280;74211;52.234;9.860;2024-02-15T00:50:40;101062.00;;;11.19;94.90
84116;BME280;74211;52.234;9.860;2024-02-15T00:53:10;101065.34;;;11.27;95.11
84116;BME280;74211;52.234;9.860;2024-02-15T00:55:40;101072.00;;;11.30;94.94
84116;BME280;74211;52.234;9.860;2024-02-15T00:58:13;101074.00;;;11.28;94.79
84116;BME280;74211;52.234;9.860;2024-02-15T01:00:43;101072.38;;;11.27;95.08
84116;BME280;74211;52.234;9.860;2024-02-15T01:03:13;101073.19;;;11.27;95.15
84116;BME280;74211;52.234;9.860;2024-02-15T01:05:46;101076.78;;;11.26;95.56
84116;BME280;74211;52.234;9.860;2024-02-15T01:08:16;101079.66;;;11.31;95.18
84116;BME280;74211;52.234;9.860;2024-02-15T01:10:47;101080.38;;;11.25;95.62
84116;BME280;74211;52.234;9.860;2024-02-15T01:13:20;101078.75;;;11.24;95.80
84116;BME280;74211;52.234;9.860;2024-02-15T01:15:50;101079.56;;;11.25;95.60
84116;BME280;74211;52.234;9.860;2024-02-15T01:18:20;101082.81;;;11.27;95.52
84116;BME280;74211;52.234;9.860;2024-02-15T01:20:50;101084.25;;;11.29;95.51
84116;BME280;74211;52.234;9.860;2024-02-15T01:23:21;101082.63;;;11.28;95.29
84116;BME280;74211;52.234;9.860;2024-02-15T01:25:52;101086.88;;;11.29;95.59
84116;BME280;74211;52.234;9.860;2024-02-15T01:28:25;101087.59;;;11.23;95.80
84116;BME280;74211;52.234;9.860;2024-02-15T01:30:55;101092.09;;;11.29;95.67
84116;BME280;74211;52.234;9.860;2024-02-15T01:33:25;101087.09;;;11.34;95.47
84116;BME280;74211;52.234;9.860;2024-02-15T01:35:56;101086.13;;;11.35;95.63
84116;BME280;74211;52.234;9.860;2024-02-15T01:38:26;101086.47;;;11.32;95.46
84116;BME280;74211;52.234;9.860;2024-02-15T01:40:56;101082.88;;;11.33;95.59
84116;BME280;74211;52.234;9.860;2024-02-15T01:43:28;101080.44;;;11.32;95.61
84116;BME280;74211;52.234;9.860;2024-02-15T01:45:58;101073.81;;;11.29;95.76
84116;BME280;74211;52.234;9.860;2024-02-15T01:48:31;101069.22;;;11.31;95.67
84116;BME280;74211;52.234;9.860;2024-02-15T01:51:01;101071.63;;;11.33;95.56
84116;BME280;74211;52.234;9.860;2024-02-15T01:53:30;101071.91;;;11.23;95.80
84116;BME280;74211;52.234;9.860;2024-02-15T01:56:00;101066.34;;;11.26;95.76
84116;BME280;74211;52.234;9.860;2024-02-15T01:58:32;101059.84;;;11.22;95.85
84116;BME280;74211;52.234;9.860;2024-02-15T02:01:04;101054.25;;;11.25;95.53
84116;BME280;74211;52.234;9.860;2024-02-15T02:03:35;101054.63;;;11.22;95.89
84116;BME280;74211;52.234;9.860;2024-02-15T02:06:05;101047.78;;;11.21;95.93
84116;BME280;74211;52.234;9.860;2024-02-15T02:08:35;101051.94;;;11.30;95.73
84116;BME280;74211;52.234;9.860;2024-02-15T02:11:06;101038.59;;;11.25;95.52
84116;BME280;74211;52.234;9.860;2024-02-15T02:13:39;101039.59;;;11.24;95.77
84116;BME280;74211;52.234;9.860;2024-02-15T02:16:24;101043.38;;;11.22;95.88
84116;BME280;74211;52.234;9.860;2024-02-15T02:18:55;101045.81;;;11.23;95.63
84116;BME280;74211;52.234;9.860;2024-02-15T02:21:26;101045.34;;;11.20;95.69
84116;BME280;74211;52.234;9.860;2024-02-15T02:23:57;101054.00;;;11.20;95.33
84116;BME280;74211;52.234;9.860;2024-02-15T02:26:30;101052.66;;;11.24;95.38
84116;BME280;74211;52.234;9.860;2024-02-15T02:29:01;101052.00;;;11.22;95.09
84116;BME280;74211;52.234;9.860;2024-02-15T02:31:32;101039.31;;;11.19;95.08
84116;BME280;74211;52.234;9.860;2024-02-15T02:34:03;101048.69;;;11.14;95.34
84116;BME280;74211;52.234;9.860;2024-02-15T02:36:34;101043.91;;;11.17;95.45
84116;BME280;74211;52.234;9.860;2024-02-15T02:39:05;101043.09;;;11.17;95.43
84116;BME280;74211;52.234;9.860;2024-02-15T02:41:37;101050.13;;;11.16;95.30
84116;BME280;74211;52.234;9.860;2024-02-15T02:44:07;101052.38;;;11.19;94.90
84116;BME280;74211;52.234;9.860;2024-02-15T02:46:37;101055.00;;;11.19;95.00
84116;BME280;74211;52.234;9.860;2024-02-15T02:49:07;101052.56;;;11.18;95.24
84116;BME280;74211;52.234;9.860;2024-02-15T02:51:38;101051.31;;;11.14;95.17
84116;BME280;74211;52.234;9.860;2024-02-15T02:54:08;101052.56;;;11.18;95.17
84116;BME280;74211;52.234;9.860;2024-02-15T02:56:41;101050.13;;;11.16;95.60
84116;BME280;74211;52.234;9.860;2024-02-15T02:59:12;101056.97;;;11.17;95.25
84116;BME280;74211;52.234;9.860;2024-02-15T03:01:43;101050.41;;;11.21;95.29
84116;BME280;74211;52.234;9.860;2024-02-15T03:04:14;101023.16;;;11.09;95.17
84116;BME280;74211;52.234;9.860;2024-02-15T03:06:44;101046.63;;;11.24;95.12
84116;BME280;74211;52.234;9.860;2024-02-15T03:09:14;101053.19;;;11.20;95.06
84116;BME280;74211;52.234;9.860;2024-02-15T03:11:47;101047.69;;;11.15;95.68
84116;BME280;74211;52.234;9.860;2024-02-15T03:14:17;101054.34;;;11.17;95.56
84116;BME280;74211;52.234;9.860;2024-02-15T03:16:47;101052.00;;;11.22;95.50
84116;BME280;74211;52.234;9.860;2024-02-15T03:19:17;101054.25;;;11.25;95.48
84116;BME280;74211;52.234;9.860;2024-02-15T03:21:49;101047.78;;;11.21;95.49
84116;BME280;74211;52.234;9.860;2024-02-15T03:24:20;101051.66;;;11.25;95.28
84116;BME280;74211;52.234;9.860;2024-02-15T03:26:53;101055.88;;;11.26;95.17
84116;BME280;74211;52.234;9.860;2024-02-15T03:29:23;101049.31;;;11.30;95.12
84116;BME280;74211;52.234;9.860;2024-02-15T03:31:52;101057.97;;;11.31;94.98
84116;BME280;74211;52.234;9.860;2024-02-15T03:34:22;101054.13;;;11.33;95.13
84116;BME280;74211;52.234;9.860;2024-02-15T03:36:53;101057.16;;;11.30;95.09
84116;BME280;74211;52.234;9.860;2024-02-15T03:39:23;101055.59;;;11.36;95.04
84116;BME280;74211;52.234;9.860;2024-02-15T03:41:56;101065.84;;;11.37;95.03
84116;BME280;74211;52.234;9.860;2024-02-15T03:44:26;101058.00;;;11.37;95.17
84116;BME280;74211;52.234;9.860;2024-02-15T03:46:58;101069.44;;;11.36;95.33
84116;BME280;74211;52.234;9.860;2024-02-15T03:49:28;101060.63;;;11.37;95.40
84116;BME280;74211;52.234;9.860;2024-02-15T03:51:58;101059.19;;;11.35;95.29
84116;BME280;74211;52.234;9.860;2024-02-15T03:54:29;101064.84;;;11.38;95.19
84116;BME280;74211;52.234;9.860;2024-02-15T03:57:02;101073.31;;;11.40;95.30
84116;BME280;74211;52.234;9.860;2024-02-15T03:59:33;101073.94;;;11.42;94.85
84116;BME280;74211;52.234;9.860;2024-02-15T04:02:05;101074.56;;;11.44;95.18
84116;BME280;74211;52.234;9.860;2024-02-15T04:04:39;101080.06;;;11.50;94.83
84116;BME280;74211;52.234;9.860;2024-02-15T04:07:10;101075.94;;;11.40;95.20
84116;BME280;74211;52.234;9.860;2024-02-15T04:09:40;101080.00;;;11.43;94.87
84116;BME280;74211;52.234;9.860;2024-02-15T04:12:13;101079.00;;;11.44;94.96
84116;BME280;74211;52.234;9.860;2024-02-15T04:14:44;101081.44;;;11.45;95.12
84116;BME280;74211;52.234;9.860;2024-02-15T04:17:15;101085.28;;;11.50;94.83
84116;BME280;74211;52.234;9.860;2024-02-15T04:19:48;101078.25;;;11.50;94.54
84116;BME280;74211;52.234;9.860;2024-02-15T04:22:21;101079.03;;;11.51;94.21
84116;BME280;74211;52.234;9.860;2024-02-15T04:24:51;101068.00;;;11.49;94.38
84116;BME280;74211;52.234;9.860;2024-02-15T04:27:26;101068.59;;;11.51;94.29
84116;BME280;74211;52.234;9.860;2024-02-15T04:29:56;101076.69;;;11.56;93.98
84116;BME280;74211;52.234;9.860;2024-02-15T04:32:26;101078.69;;;11.54;93.72
84116;BME280;74211;52.234;9.860;2024-02-15T04:35:01;101075.06;;;11.55;93.95
84116;BME280;74211;52.234;9.860;2024-02-15T04:37:35;101077.88;;;11.53;93.90
84116;BME280;74211;52.234;9.860;2024-02-15T04:40:07;101078.69;;;11.54;94.03
84116;BME280;74211;52.234;9.860;2024-02-15T04:42:41;101071.66;;;11.54;93.98
84116;BME280;74211;52.234;9.860;2024-02-15T04:45:12;101078.94;;;11.59;93.88
84116;BME280;74211;52.234;9.860;2024-02-15T04:47:43;101075.97;;;11.62;93.80
84116;BME280;74211;52.234;9.860;2024-02-15T04:50:17;101057.53;;;11.49;93.91
84116;BME280;74211;52.234;9.860;2024-02-15T04:52:48;101076.25;;;11.52;94.28
84116;BME280;74211;52.234;9.860;2024-02-15T04:55:18;101070.22;;;11.52;94.40
84116;BME280;74211;52.234;9.860;2024-02-15T04:57:52;101070.28;;;11.58;94.17
84116;BME280;74211;52.234;9.860;2024-02-15T05:00:24;101070.22;;;11.52;93.97
84116;BME280;74211;52.234;9.860;2024-02-15T05:02:55;101076.25;;;11.52;94.34
84116;BME280;74211;52.234;9.860;2024-02-15T05:05:25;101072.81;;;11.52;94.45
84116;BME280;74211;52.234;9.860;2024-02-15T05:07:56;101078.69;;;11.54;94.23
84116;BME280;74211;52.234;9.860;2024-02-15T05:10:28;101075.34;;;11.60;93.77
84116;BME280;74211;52.234;9.860;2024-02-15T05:13:00;101077.22;;;11.66;93.71
84116;BME280;74211;52.234;9.860;2024-02-15T05:15:30;101082.44;;;11.66;93.55
84116;BME280;74211;52.234;9.860;2024-02-15T05:18:00;101075.16;;;11.61;93.79
84116;BME280;74211;52.234;9.860;2024-02-15T05:20:31;101073.00;;;11.65;93.22
84116;BME280;74211;52.234;9.860;2024-02-15T05:23:01;101064.69;;;11.61;93.59
84116;BME280;74211;52.234;9.860;2024-02-15T05:25:31;101074.91;;;11.56;93.80
84116;BME280;74211;52.234;9.860;2024-02-15T05:28:05;101078.88;;;11.52;93.97
84116;BME280;74211;52.234;9.860;2024-02-15T05:30:35;101086.25;;;11.63;93.60
84116;BME280;74211;52.234;9.860;2024-02-15T05:33:06;101081.81;;;11.64;93.24
84116;BME280;74211;52.234;9.860;2024-02-15T05:35:37;101085.69;;;11.68;93.10
84116;BME280;74211;52.234;9.860;2024-02-15T05:38:13;101071.22;;;11.72;92.89
84116;BME280;74211;52.234;9.860;2024-02-15T05:40:43;101075.66;;;11.71;93.00
84116;BME280;74211;52.234;9.860;2024-02-15T05:43:18;101072.00;;;11.66;93.12
84116;BME280;74211;52.234;9.860;2024-02-15T05:45:48;101063.97;;;11.67;93.03
84116;BME280;74211;52.234;9.860;2024-02-15T05:48:19;101069.19;;;11.67;93.13
84116;BME280;74211;52.234;9.860;2024-02-15T05:50:49;101061.53;;;11.66;93.04
84116;BME280;74211;52.234;9.860;2024-02-15T05:53:21;101064.56;;;11.69;92.97
84116;BME280;74211;52.234;9.860;2024-02-15T05:55:51;101067.63;;;11.73;92.72
84116;BME280;74211;52.234;9.860;2024-02-15T05:58:23;101065.47;;;11.76;92.69
84116;BME280;74211;52.234;9.860;2024-02-15T06:00:54;101058.59;;;11.75;92.64
84116;BME280;74211;52.234;9.860;2024-02-15T06:03:28;101070.53;;;11.78;92.76
84116;BME280;74211;52.234;9.860;2024-02-15T06:05:58;101068.44;;;11.73;92.57
84116;BME280;74211;52.234;9.860;2024-02-15T06:08:29;101075.94;;;11.76;92.63
84116;BME280;74211;52.234;9.860;2024-02-15T06:10:59;101066.91;;;11.79;92.41
84116;BME280;74211;52.234;9.860;2024-02-15T06:13:32;101080.97;;;11.78;92.77
84116;BME280;74211;52.234;9.860;2024-02-15T06:16:01;101081.69;;;11.72;92.84
84116;BME280;74211;52.234;9.860;2024-02-15T06:18:36;101087.34;;;11.75;92.53
84116;BME280;74211;52.234;9.860;2024-02-15T06:21:06;101087.53;;;11.74;92.81
84116;BME280;74211;52.234;9.860;2024-02-15T06:23:36;101082.25;;;11.82;92.46
84116;BME280;74211;52.234;9.860;2024-02-15T06:26:06;101084.84;;;11.82;92.61
84116;BME280;74211;52.234;9.860;2024-02-15T06:28:39;101084.59;;;11.77;92.77
84116;BME280;74211;52.234;9.860;2024-02-15T06:31:24;101075.22;;;11.68;92.95
84116;BME280;74211;52.234;9.860;2024-02-15T06:34:06;101075.22;;;11.68;92.30
84116;BME280;74211;52.234;9.860;2024-02-15T06:36:59;101085.41;;;11.77;92.25
84116;BME280;74211;52.234;9.860;2024-02-15T06:39:42;101085.75;;;11.74;92.39
84116;BME280;74211;52.234;9.860;2024-02-15T06:42:13;101083.66;;;11.70;92.63
84116;BME280;74211;52.234;9.860;2024-02-15T06:44:48;101086.69;;;11.67;92.83
84116;BME280;74211;52.234;9.860;2024-02-15T06:47:18;101088.09;;;11.69;92.46
84116;BME280;74211;52.234;9.860;2024-02-15T06:49:49;101092.13;;;11.72;92.61
84116;BME280;74211;52.234;9.860;2024-02-15T06:52:21;101098.00;;;11.74;92.57
84116;BME280;74211;52.234;9.860;2024-02-15T06:54:50;101099.91;;;11.80;92.42
84116;BME280;74211;52.234;9.860;2024-02-15T06:57:21;101095.69;;;11.79;92.13
84116;BME280;74211;52.234;9.860;2024-02-15T06:59:53;101100.16;;;11.85;92.04
84116;BME280;74211;52.234;9.860;2024-02-15T07:02:23;101098.28;;;11.79;92.45
84116;BME280;74211;52.234;9.860;2024-02-15T07:04:53;101091.44;;;11.78;92.71
84116;BME280;74211;52.234;9.860;2024-02-15T07:07:24;101100.34;;;11.84;92.36
84116;BME280;74211;52.234;9.860;2024-02-15T07:09:54;101073.63;;;11.67;92.48
84116;BME280;74211;52.234;9.860;2024-02-15T07:12:25;101098.91;;;11.81;92.07
84116;BME280;74211;52.234;9.860;2024-02-15T07:14:58;101097.00;;;11.75;92.86
84116;BME280;74211;52.234;9.860;2024-02-15T07:17:28;101102.41;;;11.73;93.04
84116;BME280;74211;52.234;9.860;2024-02-15T07:19:58;101105.22;;;11.72;93.30
84116;BME280;74211;52.234;9.860;2024-02-15T07:22:30;101095.75;;;11.71;93.13
84116;BME280;74211;52.234;9.860;2024-02-15T07:25:02;101091.47;;;11.63;93.92
84116;BME280;74211;52.234;9.860;2024-02-15T07:27:32;101086.78;;;11.59;94.15
84116;BME280;74211;52.234;9.860;2024-02-15T07:30:06;101081.91;;;11.56;94.18
84116;BME280;74211;52.234;9.860;2024-02-15T07:32:36;101077.88;;;11.53;94.06
84116;BME280;74211;52.234;9.860;2024-02-15T07:35:07;101074.91;;;11.56;93.64
84116;BME280;74211;52.234;9.860;2024-02-15T07:37:39;101072.28;;;11.56;93.81
84116;BME280;74211;52.234;9.860;2024-02-15T07:40:09;101069.75;;;11.63;93.27
84116;BME280;74211;52.234;9.860;2024-02-15T07:42:40;101067.13;;;11.63;93.32
84116;BME280;74211;52.234;9.860;2024-02-15T07:45:13;101066.69;;;11.59;93.51
84116;BME280;74211;52.234;9.860;2024-02-15T07:47:45;101080.81;;;11.65;93.63
84116;BME280;74211;52.234;9.860;2024-02-15T07:50:17;101084.06;;;11.67;93.57
84116;BME280;74211;52.234;9.860;2024-02-15T07:52:50;101084.06;;;11.67;93.29
84116;BME280;74211;52.234;9.860;2024-02-15T07:55:20;101088.72;;;11.71;93.04
84116;BME280;74211;52.234;9.860;2024-02-15T07:57:51;101082.97;;;11.76;92.94
84116;BME280;74211;52.234;9.860;2024-02-15T08:00:25;101080.63;;;11.81;92.86
84116;BME280;74211;52.234;9.860;2024-02-15T08:02:57;101081.59;;;11.80;92.72
84116;BME280;74211;52.234;9.860;2024-02-15T08:05:27;101080.66;;;11.88;92.80
84116;BME280;74211;52.234;9.860;2024-02-15T08:07:57;101079.47;;;11.90;92.29
84116;BME280;74211;52.234;9.860;2024-02-15T08:10:27;101070.63;;;11.91;92.50
84116;BME280;74211;52.234;9.860;2024-02-15T08:12:57;101071.53;;;11.98;92.47
84116;BME280;74211;52.234;9.860;2024-02-15T08:15:30;101072.34;;;11.99;92.58
84116;BME280;74211;52.234;9.860;2024-02-15T08:18:00;101070.91;;;11.96;92.34
84116;BME280;74211;52.234;9.860;2024-02-15T08:20:33;101076.38;;;12.01;91.98
84116;BME280;74211;52.234;9.860;2024-02-15T08:23:03;101071.59;;;12.05;92.21
84116;BME280;74211;52.234;9.860;2024-02-15T08:25:33;101069.00;;;12.11;92.44
84116;BME280;74211;52.234;9.860;2024-02-15T08:28:04;101066.84;;;12.15;92.62
84116;BME280;74211;52.234;9.860;2024-02-15T08:30:39;101068.50;;;12.23;92.12
84116;BME280;74211;52.234;9.860;2024-02-15T08:33:09;101061.88;;;12.27;91.28
84116;BME280;74211;52.234;9.860;2024-02-15T08:35:40;101059.13;;;12.35;90.80
84116;BME280;74211;52.234;9.860;2024-02-15T08:38:11;101057.03;;;12.52;89.77
84116;BME280;74211;52.234;9.860;2024-02-15T08:40:41;101052.59;;;12.52;89.14
84116;BME280;74211;52.234;9.860;2024-02-15T08:43:13;101053.28;;;12.67;87.48
84116;BME280;74211;52.234;9.860;2024-02-15T08:45:49;101054.97;;;12.75;87.93
84116;BME280;74211;52.234;9.860;2024-02-15T08:48:20;101055.78;;;12.75;87.86
84116;BME280;74211;52.234;9.860;2024-02-15T08:50:50;101053.78;;;12.77;88.83
84116;BME280;74211;52.234;9.860;2024-02-15T08:53:20;101055.97;;;12.80;87.51
84116;BME280;74211;52.234;9.860;2024-02-15T08:55:51;101054.59;;;12.78;87.89
84116;BME280;74211;52.234;9.860;2024-02-15T08:58:22;101053.97;;;12.82;87.15
84116;BME280;74211;52.234;9.860;2024-02-15T09:00:54;101053.97;;;12.82;86.63
84116;BME280;74211;52.234;9.860;2024-02-15T09:03:24;101054.16;;;12.81;86.91
84116;BME280;74211;52.234;9.860;2024-02-15T09:05:54;101056.59;;;12.82;87.40
84116;BME280;74211;52.234;9.860;2024-02-15T09:08:26;101047.97;;;12.89;86.21
84116;BME280;74211;52.234;9.860;2024-02-15T09:10:57;101053.03;;;12.90;86.93
84116;BME280;74211;52.234;9.860;2024-02-15T09:13:28;101057.88;;;12.93;86.33
84116;BME280;74211;52.234;9.860;2024-02-15T09:16:02;101054.84;;;12.90;86.96
84116;BME280;74211;52.234;9.860;2024-02-15T09:18:31;101041.75;;;12.90;85.86
84116;BME280;74211;52.234;9.860;2024-02-15T09:21:02;101043.34;;;12.91;86.61
84116;BME280;74211;52.234;9.860;2024-02-15T09:23:32;101037.31;;;12.90;85.64
84116;BME280;74211;52.234;9.860;2024-02-15T09:26:02;101042.97;;;12.94;85.64
84116;BME280;74211;52.234;9.860;2024-02-15T09:28:32;101049.59;;;12.90;85.77
84116;BME280;74211;52.234;9.860;2024-02-15T09:31:05;101053.44;;;12.94;85.78
84116;BME280;74211;52.234;9.860;2024-02-15T09:33:38;101038.50;;;12.88;85.54
84116;BME280;74211;52.234;9.860;2024-02-15T09:36:08;101043.59;;;12.96;86.17
84116;BME280;74211;52.234;9.860;2024-02-15T09:38:39;101043.16;;;12.92;84.83
84116;BME280;74211;52.234;9.860;2024-02-15T09:41:09;101048.81;;;12.96;84.88
84116;BME280;74211;52.234;9.860;2024-02-15T09:43:39;101047.03;;;13.03;84.98
84116;BME280;74211;52.234;9.860;2024-02-15T09:46:12;101056.50;;;13.04;84.80
84116;BME280;74211;52.234;9.860;2024-02-15T09:48:51;101055.50;;;13.05;83.88
84116;BME280;74211;52.234;9.860;2024-02-15T09:51:26;101048.03;;;13.02;83.63
84116;BME280;74211;52.234;9.860;2024-02-15T09:53:58;101058.34;;;13.10;83.60
84116;BME280;74211;52.234;9.860;2024-02-15T09:56:30;101054.09;;;13.09;83.42
84116;BME280;74211;52.234;9.860;2024-02-15T09:59:01;101062.59;;;13.11;84.02
84116;BME280;74211;52.234;9.860;2024-02-15T10:01:34;101059.16;;;13.10;84.51
84116;BME280;74211;52.234;9.860;2024-02-15T10:04:07;101056.72;;;13.09;84.93
84116;BME280;74211;52.234;9.860;2024-02-15T10:06:42;101058.16;;;13.11;85.07
84116;BME280;74211;52.234;9.860;2024-02-15T10:09:26;101058.31;;;13.03;85.69
84116;BME280;74211;52.234;9.860;2024-02-15T10:11:59;101061.75;;;13.04;85.51
84116;BME280;74211;52.234;9.860;2024-02-15T10:14:29;101066.97;;;12.97;84.69
84116;BME280;74211;52.234;9.860;2024-02-15T10:17:08;101066.53;;;12.94;84.91
84116;BME280;74211;52.234;9.860;2024-02-15T10:19:40;101069.16;;;13.00;85.93
84116;BME280;74211;52.234;9.860;2024-02-15T10:22:11;101067.78;;;12.98;86.19
84116;BME280;74211;52.234;9.860;2024-02-15T10:24:39;101069.78;;;12.96;86.44
84116;BME280;74211;52.234;9.860;2024-02-15T10:27:09;101073.59;;;12.93;86.80
84116;BME280;74211;52.234;9.860;2024-02-15T10:29:40;101068.78;;;12.97;86.17
84116;BME280;74211;52.234;9.860;2024-02-15T10:32:13;101070.59;;;13.03;84.91
84116;BME280;74211;52.234;9.860;2024-02-15T10:34:46;101067.97;;;13.03;85.12
84116;BME280;74211;52.234;9.860;2024-02-15T10:37:17;101076.44;;;13.05;85.51
84116;BME280;74211;52.234;9.860;2024-02-15T10:40:03;101061.75;;;13.04;85.68
84116;BME280;74211;52.234;9.860;2024-02-15T10:42:36;101061.75;;;13.04;85.96
84116;BME280;74211;52.234;9.860;2024-02-15T10:45:07;101063.34;;;13.05;86.36
84116;BME280;74211;52.234;9.860;2024-02-15T10:47:42;101060.91;;;12.97;86.35
84116;BME280;74211;52.234;9.860;2024-02-15T10:50:13;101064.91;;;12.93;87.32
84116;BME280;74211;52.234;9.860;2024-02-15T10:52:48;101048.97;;;12.88;86.65
84116;BME280;74211;52.234;9.860;2024-02-15T10:55:31;101056.41;;;12.84;87.15
84116;BME280;74211;52.234;9.860;2024-02-15T10:58:06;101044.31;;;12.76;87.42
84116;BME280;74211;52.234;9.860;2024-02-15T11:00:37;101044.09;;;12.78;87.42
84116;BME280;74211;52.234;9.860;2024-02-15T11:03:19;101037.66;;;12.80;87.34
84116;BME280;74211;52.234;9.860;2024-02-15T11:05:55;101030.41;;;12.82;86.93
84116;BME280;74211;52.234;9.860;2024-02-15T11:08:30;101044.34;;;12.90;86.82
84116;BME280;74211;52.234;9.860;2024-02-15T11:11:00;101036.34;;;12.98;86.33
84116;BME280;74211;52.234;9.860;2024-02-15T11:13:32;101039.97;;;12.97;86.77
84116;BME280;74211;52.234;9.860;2024-02-15T11:16:01;101033.50;;;12.99;87.13
84116;BME280;74211;52.234;9.860;2024-02-15T11:18:48;101028.69;;;13.03;87.02
84116;BME280;74211;52.234;9.860;2024-02-15T11:21:52;101036.00;;;13.14;86.64
84116;BME280;74211;52.234;9.860;2024-02-15T11:24:27;101012.16;;;12.96;86.20
84116;BME280;74211;52.234;9.860;2024-02-15T11:26:59;101030.53;;;13.09;86.83
84116;BME280;74211;52.234;9.860;2024-02-15T11:29:47;101025.44;;;13.01;87.08
84116;BME280;74211;52.234;9.860;2024-02-15T11:32:41;101026.06;;;12.96;86.91
84116;BME280;74211;52.234;9.860;2024-02-15T11:35:18;101018.22;;;13.03;86.21
84116;BME280;74211;52.234;9.860;2024-02-15T11:37:53;101013.59;;;13.05;86.23
84116;BME280;74211;52.234;9.860;2024-02-15T11:40:22;101006.31;;;13.00;87.10
84116;BME280;74211;52.234;9.860;2024-02-15T11:42:55;101003.72;;;13.07;87.15
84116;BME280;74211;52.234;9.860;2024-02-15T11:45:27;101000.97;;;13.15;87.62
84116;BME280;74211;52.234;9.860;2024-02-15T11:48:01;100999.31;;;13.14;87.18
84116;BME280;74211;52.234;9.860;2024-02-15T11:50:37;101005.78;;;13.18;87.25
84116;BME280;74211;52.234;9.860;2024-02-15T11:53:08;100994.31;;;13.19;86.78
84116;BME280;74211;52.234;9.860;2024-02-15T11:55:40;100986.25;;;13.21;86.96
84116;BME280;74211;52.234;9.860;2024-02-15T11:58:12;100981.03;;;13.21;87.10
84116;BME280;74211;52.234;9.860;2024-02-15T12:00:59;100976.81;;;13.26;86.96
84116;BME280;74211;52.234;9.860;2024-02-15T12:03:41;100977.84;;;13.32;86.46
84116;BME280;74211;52.234;9.860;2024-02-15T12:06:35;100980.84;;;13.29;86.29
84116;BME280;74211;52.234;9.860;2024-02-15T12:09:18;100976.03;;;13.32;86.42
84116;BME280;74211;52.234;9.860;2024-02-15T12:12:01;100974.00;;;13.34;86.16
84116;BME280;74211;52.234;9.860;2024-02-15T12:14:44;100980.06;;;13.41;86.06
84116;BME280;74211;52.234;9.860;2024-02-15T12:17:26;100970.97;;;13.31;86.49
84116;BME280;74211;52.234;9.860;2024-02-15T12:20:09;100973.41;;;13.32;87.05
84116;BME280;74211;52.234;9.860;2024-02-15T12:22:46;100967.53;;;13.30;86.46
84116;BME280;74211;52.234;9.860;2024-02-15T12:25:18;100971.59;;;13.33;87.20
84116;BME280;74211;52.234;9.860;2024-02-15T12:27:53;100955.44;;;13.29;86.38
84116;BME280;74211;52.234;9.860;2024-02-15T12:30:23;100962.69;;;13.27;86.64
84116;BME280;74211;52.234;9.860;2024-02-15T12:33:08;100952.84;;;13.29;87.41
84116;BME280;74211;52.234;9.860;2024-02-15T12:35:40;100942.34;;;13.29;87.01
84116;BME280;74211;52.234;9.860;2024-02-15T12:38:14;100944.97;;;13.29;86.79
84116;BME280;74211;52.234;9.860;2024-02-15T12:40:45;100935.69;;;13.27;86.35
84116;BME280;74211;52.234;9.860;2024-02-15T12:43:15;100932.47;;;13.25;85.65
84116;BME280;74211;52.234;9.860;2024-02-15T12:45:45;100941.34;;;13.30;86.25
84116;BME280;74211;52.234;9.860;2024-02-15T12:48:15;100941.75;;;13.27;86.29
84116;BME280;74211;52.234;9.860;2024-02-15T12:50:46;100939.72;;;13.29;86.66
84116;BME280;74211;52.234;9.860;2024-02-15T12:53:23;100937.69;;;13.25;86.06
84116;BME280;74211;52.234;9.860;2024-02-15T12:55:54;100938.91;;;13.22;86.82
84116;BME280;74211;52.234;9.860;2024-02-15T12:58:24;100940.53;;;13.16;86.90
84116;BME280;74211;52.234;9.860;2024-02-15T13:00:56;100938.66;;;13.10;87.19
84116;BME280;74211;52.234;9.860;2024-02-15T13:03:28;100944.09;;;13.09;87.59
84116;BME280;74211;52.234;9.860;2024-02-15T13:05:58;100947.94;;;13.13;88.01
84116;BME280;74211;52.234;9.860;2024-02-15T13:08:31;100949.56;;;13.14;87.40
84116;BME280;74211;52.234;9.860;2024-02-15T13:11:02;100942.53;;;13.21;87.22
84116;BME280;74211;52.234;9.860;2024-02-15T13:13:32;100945.75;;;13.23;87.34
84116;BME280;74211;52.234;9.860;2024-02-15T13:16:02;100937.91;;;13.30;87.19